sensor_id;sensor_type;location;lat;lon;timestamp;P1;durP1;ratioP1;P2;durP2;ratioP2
16450;SDS011;12243;42.708;23.310;2023-10-31T00:00:56;16.70;;;8.53;;
16450;SDS011;12243;42.708;23.310;2023-10-31T00:03:23;13.97;;;9.47;;
16450;SDS011;12243;42.708;23.310;2023-10-31T00:05:51;14.83;;;8.53;;
16450;SDS011;12243;42.708;23.310;2023-10-31T00:08:18;14.33;;;8.50;;
16450;SDS011;12243;42.708;23.310;2023-10-31T00:10:45;20.07;;;9.50;;
16450;SDS011;12243;42.708;23.310;2023-10-31T00:13:12;15.10;;;8.77;;
16450;SDS011;12243;42.708;23.310;2023-10-31T00:15:39;14.97;;;8.67;;
16450;SDS011;12243;42.708;23.310;2023-10-31T00:18:06;13.27;;;8.60;;
16450;SDS011;12243;42.708;23.310;2023-10-31T00:20:32;13.53;;;8.50;;
16450;SDS011;12243;42.708;23.310;2023-10-31T00:23:01;13.60;;;8.33;;
16450;SDS011;12243;42.708;23.310;2023-10-31T00:25:28;12.90;;;8.87;;
16450;SDS011;12243;42.708;23.310;2023-10-31T00:27:55;14.97;;;8.70;;
16450;SDS011;12243;42.708;23.310;2023-10-31T00:30:22;14.00;;;9.03;;
16450;SDS011;12243;42.708;23.310;2023-10-31T00:32:49;15.73;;;9.07;;
16450;SDS011;12243;42.708;23.310;2023-10-31T00:35:16;13.03;;;8.00;;
16450;SDS011;12243;42.708;23.310;2023-10-31T00:37:43;15.57;;;9.07;;
16450;SDS011;12243;42.708;23.310;2023-10-31T00:40:12;12.63;;;7.60;;
16450;SDS011;12243;42.708;23.310;2023-10-31T00:42:39;12.23;;;8.13;;
16450;SDS011;12243;42.708;23.310;2023-10-31T00:45:07;13.30;;;8.10;;
16450;SDS011;12243;42.708;23.310;2023-10-31T00:47:35;15.43;;;8.00;;
16450;SDS011;12243;42.708;23.310;2023-10-31T00:50:02;12.57;;;7.57;;
16450;SDS011;12243;42.708;23.310;2023-10-31T00:52:29;17.30;;;8.20;;
16450;SDS011;12243;42.708;23.310;2023-10-31T00:54:56;12.87;;;7.97;;
16450;SDS011;12243;42.708;23.310;2023-10-31T00:57:24;12.17;;;8.13;;
16450;SDS011;12243;42.708;23.310;2023-10-31T00:59:51;12.27;;;7.53;;
16450;SDS011;12243;42.708;23.310;2023-10-31T01:02:18;14.57;;;7.53;;
16450;SDS011;12243;42.708;23.310;2023-10-31T01:04:45;14.37;;;8.13;;
16450;SDS011;12243;42.708;23.310;2023-10-31T01:07:12;11.33;;;8.23;;
16450;SDS011;12243;42.708;23.310;2023-10-31T01:09:42;15.73;;;8.33;;
16450;SDS011;12243;42.708;23.310;2023-10-31T01:12:09;14.73;;;8.00;;
16450;SDS011;12243;42.708;23.310;2023-10-31T01:14:38;15.60;;;7.53;;
16450;SDS011;12243;42.708;23.310;2023-10-31T01:17:05;11.03;;;7.60;;
16450;SDS011;12243;42.708;23.310;2023-10-31T01:19:33;14.00;;;7.73;;
16450;SDS011;12243;42.708;23.310;2023-10-31T01:22:00;11.23;;;7.63;;
16450;SDS011;12243;42.708;23.310;2023-10-31T01:24:27;11.60;;;7.60;;
16450;SDS011;12243;42.708;23.310;2023-10-31T01:26:54;8.27;;;6.07;;
16450;SDS011;12243;42.708;23.310;2023-10-31T01:29:21;10.33;;;6.47;;
16450;SDS011;12243;42.708;23.310;2023-10-31T01:31:49;10.43;;;6.00;;
16450;SDS011;12243;42.708;23.310;2023-10-31T01:34:16;10.90;;;6.47;;
16450;SDS011;12243;42.708;23.310;2023-10-31T01:36:43;10.13;;;6.80;;
16450;SDS011;12243;42.708;23.310;2023-10-31T01:39:10;9.43;;;5.93;;
16450;SDS011;12243;42.708;23.310;2023-10-31T01:41:37;7.83;;;5.87;;
16450;SDS011;12243;42.708;23.310;2023-10-31T01:44:04;9.93;;;6.77;;
16450;SDS011;12243;42.708;23.310;2023-10-31T01:46:31;9.03;;;6.43;;
16450;SDS011;12243;42.708;23.310;2023-10-31T01:48:59;9.37;;;6.17;;
16450;SDS011;12243;42.708;23.310;2023-10-31T01:51:26;10.30;;;6.53;;
16450;SDS011;12243;42.708;23.310;2023-10-31T01:53:54;10.50;;;6.27;;
16450;SDS011;12243;42.708;23.310;2023-10-31T01:56:22;11.63;;;6.63;;
16450;SDS011;12243;42.708;23.310;2023-10-31T01:58:49;12.40;;;5.90;;
16450;SDS011;12243;42.708;23.310;2023-10-31T02:01:16;8.43;;;6.03;;
16450;SDS011;12243;42.708;23.310;2023-10-31T02:03:43;9.13;;;6.33;;
16450;SDS011;12243;42.708;23.310;2023-10-31T02:06:10;10.73;;;6.50;;
16450;SDS011;12243;42.708;23.310;2023-10-31T02:08:37;6.63;;;5.70;;
16450;SDS011;12243;42.708;23.310;2023-10-31T02:11:04;9.43;;;5.97;;
16450;SDS011;12243;42.708;23.310;2023-10-31T02:13:35;8.70;;;6.00;;
16450;SDS011;12243;42.708;23.310;2023-10-31T02:16:03;7.70;;;6.17;;
16450;SDS011;12243;42.708;23.310;2023-10-31T02:18:30;7.53;;;5.73;;
16450;SDS011;12243;42.708;23.310;2023-10-31T02:20:57;13.00;;;6.13;;
16450;SDS011;12243;42.708;23.310;2023-10-31T02:23:25;8.77;;;6.00;;
16450;SDS011;12243;42.708;23.310;2023-10-31T02:25:52;8.60;;;5.70;;
16450;SDS011;12243;42.708;23.310;2023-10-31T02:28:19;10.50;;;6.00;;
16450;SDS011;12243;42.708;23.310;2023-10-31T02:30:46;8.23;;;5.70;;
16450;SDS011;12243;42.708;23.310;2023-10-31T02:33:13;10.13;;;5.93;;
16450;SDS011;12243;42.708;23.310;2023-10-31T02:35:40;14.00;;;5.93;;
16450;SDS011;12243;42.708;23.310;2023-10-31T02:38:07;14.03;;;6.20;;
16450;SDS011;12243;42.708;23.310;2023-10-31T02:40:35;8.80;;;6.20;;
16450;SDS011;12243;42.708;23.310;2023-10-31T02:43:03;10.63;;;7.10;;
16450;SDS011;12243;42.708;23.310;2023-10-31T02:45:32;9.33;;;6.70;;
16450;SDS011;12243;42.708;23.310;2023-10-31T02:47:59;11.50;;;6.60;;
16450;SDS011;12243;42.708;23.310;2023-10-31T02:50:26;10.43;;;6.40;;
16450;SDS011;12243;42.708;23.310;2023-10-31T02:52:53;11.67;;;7.47;;
16450;SDS011;12243;42.708;23.310;2023-10-31T02:55:20;14.70;;;7.80;;
16450;SDS011;12243;42.708;23.310;2023-10-31T02:57:49;12.87;;;7.90;;
16450;SDS011;12243;42.708;23.310;2023-10-31T03:00:16;12.87;;;8.40;;
16450;SDS011;12243;42.708;23.310;2023-10-31T03:02:43;17.73;;;8.10;;
16450;SDS011;12243;42.708;23.310;2023-10-31T03:05:10;15.07;;;7.80;;
16450;SDS011;12243;42.708;23.310;2023-10-31T03:07:37;13.80;;;8.03;;
16450;SDS011;12243;42.708;23.310;2023-10-31T03:10:04;12.77;;;8.40;;
16450;SDS011;12243;42.708;23.310;2023-10-31T03:12:33;13.93;;;8.30;;
16450;SDS011;12243;42.708;23.310;2023-10-31T03:15:01;17.73;;;7.97;;
16450;SDS011;12243;42.708;23.310;2023-10-31T03:17:28;15.70;;;8.67;;
16450;SDS011;12243;42.708;23.310;2023-10-31T03:19:55;21.27;;;8.50;;
16450;SDS011;12243;42.708;23.310;2023-10-31T03:22:22;18.80;;;8.80;;
16450;SDS011;12243;42.708;23.310;2023-10-31T03:24:49;18.10;;;8.90;;
16450;SDS011;12243;42.708;23.310;2023-10-31T03:27:16;16.10;;;9.10;;
16450;SDS011;12243;42.708;23.310;2023-10-31T03:29:43;18.03;;;8.97;;
16450;SDS011;12243;42.708;23.310;2023-10-31T03:32:12;16.93;;;8.83;;
16450;SDS011;12243;42.708;23.310;2023-10-31T03:34:38;18.03;;;8.93;;
16450;SDS011;12243;42.708;23.310;2023-10-31T03:37:06;13.87;;;8.10;;
16450;SDS011;12243;42.708;23.310;2023-10-31T03:39:33;17.27;;;8.33;;
16450;SDS011;12243;42.708;23.310;2023-10-31T03:42:00;13.50;;;7.10;;
16450;SDS011;12243;42.708;23.310;2023-10-31T03:44:27;17.30;;;8.07;;
16450;SDS011;12243;42.708;23.310;2023-10-31T03:46:55;13.07;;;7.90;;
16450;SDS011;12243;42.708;23.310;2023-10-31T03:49:23;16.00;;;8.97;;
16450;SDS011;12243;42.708;23.310;2023-10-31T03:51:50;16.47;;;8.97;;
16450;SDS011;12243;42.708;23.310;2023-10-31T03:54:17;17.70;;;8.63;;
16450;SDS011;12243;42.708;23.310;2023-10-31T03:56:44;15.60;;;7.43;;
16450;SDS011;12243;42.708;23.310;2023-10-31T03:59:12;17.03;;;8.67;;
16450;SDS011;12243;42.708;23.310;2023-10-31T04:01:39;19.23;;;7.53;;
16450;SDS011;12243;42.708;23.310;2023-10-31T04:04:06;12.37;;;7.50;;
16450;SDS011;12243;42.708;23.310;2023-10-31T04:06:34;17.93;;;8.10;;
16450;SDS011;12243;42.708;23.310;2023-10-31T04:09:05;14.10;;;7.73;;
16450;SDS011;12243;42.708;23.310;2023-10-31T04:11:32;16.17;;;7.47;;
16450;SDS011;12243;42.708;23.310;2023-10-31T04:13:59;13.70;;;7.43;;
16450;SDS011;12243;42.708;23.310;2023-10-31T04:16:25;12.80;;;7.33;;
16450;SDS011;12243;42.708;23.310;2023-10-31T04:18:55;11.57;;;7.43;;
16450;SDS011;12243;42.708;23.310;2023-10-31T04:21:22;22.33;;;10.53;;
16450;SDS011;12243;42.708;23.310;2023-10-31T04:23:52;25.10;;;11.60;;
16450;SDS011;12243;42.708;23.310;2023-10-31T04:26:19;22.37;;;12.50;;
16450;SDS011;12243;42.708;23.310;2023-10-31T04:28:46;16.70;;;9.53;;
16450;SDS011;12243;42.708;23.310;2023-10-31T04:31:13;11.57;;;8.07;;
16450;SDS011;12243;42.708;23.310;2023-10-31T04:33:40;17.53;;;8.33;;
16450;SDS011;12243;42.708;23.310;2023-10-31T04:36:07;14.87;;;8.47;;
16450;SDS011;12243;42.708;23.310;2023-10-31T04:38:36;22.10;;;8.80;;
16450;SDS011;12243;42.708;23.310;2023-10-31T04:41:07;19.60;;;9.37;;
16450;SDS011;12243;42.708;23.310;2023-10-31T04:43:34;20.07;;;9.63;;
16450;SDS011;12243;42.708;23.310;2023-10-31T04:46:01;16.90;;;9.23;;
16450;SDS011;12243;42.708;23.310;2023-10-31T04:48:28;17.57;;;9.10;;
16450;SDS011;12243;42.708;23.310;2023-10-31T04:50:57;19.13;;;9.47;;
16450;SDS011;12243;42.708;23.310;2023-10-31T04:53:24;12.77;;;8.73;;
16450;SDS011;12243;42.708;23.310;2023-10-31T04:55:51;17.47;;;9.30;;
16450;SDS011;12243;42.708;23.310;2023-10-31T04:58:19;12.40;;;8.33;;
16450;SDS011;12243;42.708;23.310;2023-10-31T05:00:46;12.47;;;8.50;;
16450;SDS011;12243;42.708;23.310;2023-10-31T05:03:13;14.70;;;7.77;;
16450;SDS011;12243;42.708;23.310;2023-10-31T05:05:40;18.73;;;8.17;;
16450;SDS011;12243;42.708;23.310;2023-10-31T05:08:07;17.23;;;8.33;;
16450;SDS011;12243;42.708;23.310;2023-10-31T05:10:34;13.87;;;8.13;;
16450;SDS011;12243;42.708;23.310;2023-10-31T05:13:01;15.77;;;8.20;;
16450;SDS011;12243;42.708;23.310;2023-10-31T05:15:30;13.80;;;7.90;;
16450;SDS011;12243;42.708;23.310;2023-10-31T05:17:57;12.50;;;7.83;;
16450;SDS011;12243;42.708;23.310;2023-10-31T05:20:24;13.73;;;7.77;;
16450;SDS011;12243;42.708;23.310;2023-10-31T05:22:51;11.33;;;7.60;;
16450;SDS011;12243;42.708;23.310;2023-10-31T05:25:19;14.17;;;9.47;;
16450;SDS011;12243;42.708;23.310;2023-10-31T05:27:46;13.50;;;8.97;;
16450;SDS011;12243;42.708;23.310;2023-10-31T05:30:14;15.07;;;8.80;;
16450;SDS011;12243;42.708;23.310;2023-10-31T05:32:42;15.17;;;9.00;;
16450;SDS011;12243;42.708;23.310;2023-10-31T05:35:09;22.20;;;8.60;;
16450;SDS011;12243;42.708;23.310;2023-10-31T05:37:37;12.03;;;8.27;;
16450;SDS011;12243;42.708;23.310;2023-10-31T05:40:05;16.63;;;9.40;;
16450;SDS011;12243;42.708;23.310;2023-10-31T05:42:33;15.97;;;8.83;;
16450;SDS011;12243;42.708;23.310;2023-10-31T05:45:00;15.20;;;9.50;;
16450;SDS011;12243;42.708;23.310;2023-10-31T05:47:27;14.73;;;9.40;;
16450;SDS011;12243;42.708;23.310;2023-10-31T05:49:55;17.27;;;10.23;;
16450;SDS011;12243;42.708;23.310;2023-10-31T05:52:22;16.37;;;9.70;;
16450;SDS011;12243;42.708;23.310;2023-10-31T05:54:49;17.17;;;9.00;;
16450;SDS011;12243;42.708;23.310;2023-10-31T05:57:16;16.37;;;9.33;;
16450;SDS011;12243;42.708;23.310;2023-10-31T05:59:43;15.17;;;9.70;;
16450;SDS011;12243;42.708;23.310;2023-10-31T06:02:10;16.60;;;9.40;;
16450;SDS011;12243;42.708;23.310;2023-10-31T06:04:37;15.43;;;9.90;;
16450;SDS011;12243;42.708;23.310;2023-10-31T06:07:05;17.90;;;10.30;;
16450;SDS011;12243;42.708;23.310;2023-10-31T06:09:32;15.23;;;10.47;;
16450;SDS011;12243;42.708;23.310;2023-10-31T06:12:00;16.23;;;9.50;;
16450;SDS011;12243;42.708;23.310;2023-10-31T06:14:26;19.00;;;10.93;;
16450;SDS011;12243;42.708;23.310;2023-10-31T06:16:56;18.83;;;11.03;;
16450;SDS011;12243;42.708;23.310;2023-10-31T06:19:24;18.73;;;11.90;;
16450;SDS011;12243;42.708;23.310;2023-10-31T06:21:51;19.07;;;11.13;;
16450;SDS011;12243;42.708;23.310;2023-10-31T06:24:20;18.57;;;11.40;;
16450;SDS011;12243;42.708;23.310;2023-10-31T06:26:47;14.77;;;11.03;;
16450;SDS011;12243;42.708;23.310;2023-10-31T06:29:14;21.53;;;11.80;;
16450;SDS011;12243;42.708;23.310;2023-10-31T06:31:41;21.73;;;12.13;;
16450;SDS011;12243;42.708;23.310;2023-10-31T06:34:08;15.37;;;11.77;;
16450;SDS011;12243;42.708;23.310;2023-10-31T06:36:35;21.20;;;12.43;;
16450;SDS011;12243;42.708;23.310;2023-10-31T06:39:02;20.87;;;11.60;;
16450;SDS011;12243;42.708;23.310;2023-10-31T06:41:30;19.37;;;11.53;;
16450;SDS011;12243;42.708;23.310;2023-10-31T06:43:57;16.73;;;10.67;;
16450;SDS011;12243;42.708;23.310;2023-10-31T06:46:24;23.83;;;11.83;;
16450;SDS011;12243;42.708;23.310;2023-10-31T06:48:51;20.83;;;12.00;;
16450;SDS011;12243;42.708;23.310;2023-10-31T06:51:18;18.67;;;11.50;;
16450;SDS011;12243;42.708;23.310;2023-10-31T06:53:45;19.43;;;11.13;;
16450;SDS011;12243;42.708;23.310;2023-10-31T06:56:12;18.50;;;10.17;;
16450;SDS011;12243;42.708;23.310;2023-10-31T06:58:41;19.47;;;10.97;;
16450;SDS011;12243;42.708;23.310;2023-10-31T07:01:08;17.50;;;11.00;;
16450;SDS011;12243;42.708;23.310;2023-10-31T07:03:36;19.73;;;12.53;;
16450;SDS011;12243;42.708;23.310;2023-10-31T07:06:03;19.57;;;10.63;;
16450;SDS011;12243;42.708;23.310;2023-10-31T07:08:30;21.93;;;11.13;;
16450;SDS011;12243;42.708;23.310;2023-10-31T07:10:57;15.40;;;9.47;;
16450;SDS011;12243;42.708;23.310;2023-10-31T07:13:24;16.47;;;9.50;;
16450;SDS011;12243;42.708;23.310;2023-10-31T07:15:53;18.17;;;10.03;;
16450;SDS011;12243;42.708;23.310;2023-10-31T07:18:19;14.47;;;9.60;;
16450;SDS011;12243;42.708;23.310;2023-10-31T07:20:46;17.20;;;9.30;;
16450;SDS011;12243;42.708;23.310;2023-10-31T07:23:13;14.63;;;8.43;;
16450;SDS011;12243;42.708;23.310;2023-10-31T07:25:40;14.10;;;9.97;;
16450;SDS011;12243;42.708;23.310;2023-10-31T07:28:08;15.50;;;9.47;;
16450;SDS011;12243;42.708;23.310;2023-10-31T07:30:35;14.33;;;9.47;;
16450;SDS011;12243;42.708;23.310;2023-10-31T07:33:03;22.77;;;10.13;;
16450;SDS011;12243;42.708;23.310;2023-10-31T07:35:30;17.90;;;10.10;;
16450;SDS011;12243;42.708;23.310;2023-10-31T07:37:57;19.57;;;10.73;;
16450;SDS011;12243;42.708;23.310;2023-10-31T07:40:24;20.63;;;10.97;;
16450;SDS011;12243;42.708;23.310;2023-10-31T07:42:51;18.23;;;11.07;;
16450;SDS011;12243;42.708;23.310;2023-10-31T07:45:18;17.43;;;10.87;;
16450;SDS011;12243;42.708;23.310;2023-10-31T07:47:45;16.27;;;11.17;;
16450;SDS011;12243;42.708;23.310;2023-10-31T07:50:13;15.97;;;10.00;;
16450;SDS011;12243;42.708;23.310;2023-10-31T07:52:40;16.23;;;10.03;;
16450;SDS011;12243;42.708;23.310;2023-10-31T07:55:09;15.90;;;10.03;;
16450;SDS011;12243;42.708;23.310;2023-10-31T07:57:36;16.00;;;8.70;;
16450;SDS011;12243;42.708;23.310;2023-10-31T08:00:09;15.83;;;9.43;;
16450;SDS011;12243;42.708;23.310;2023-10-31T08:02:37;14.07;;;9.23;;
16450;SDS011;12243;42.708;23.310;2023-10-31T08:05:04;12.80;;;9.03;;
16450;SDS011;12243;42.708;23.310;2023-10-31T08:07:33;14.20;;;8.57;;
16450;SDS011;12243;42.708;23.310;2023-10-31T08:10:00;15.32;;;9.30;;
16450;SDS011;12243;42.708;23.310;2023-10-31T08:12:29;12.30;;;8.90;;
16450;SDS011;12243;42.708;23.310;2023-10-31T08:14:55;11.55;;;7.80;;
16450;SDS011;12243;42.708;23.310;2023-10-31T08:17:23;11.27;;;7.75;;
16450;SDS011;12243;42.708;23.310;2023-10-31T08:19:51;12.63;;;7.87;;
16450;SDS011;12243;42.708;23.310;2023-10-31T08:22:18;13.45;;;8.27;;
16450;SDS011;12243;42.708;23.310;2023-10-31T08:24:46;13.98;;;8.70;;
16450;SDS011;12243;42.708;23.310;2023-10-31T08:27:13;15.55;;;9.25;;
16450;SDS011;12243;42.708;23.310;2023-10-31T08:29:40;15.20;;;9.80;;
16450;SDS011;12243;42.708;23.310;2023-10-31T08:32:07;13.40;;;8.82;;
16450;SDS011;12243;42.708;23.310;2023-10-31T08:34:34;16.80;;;9.50;;
16450;SDS011;12243;42.708;23.310;2023-10-31T08:37:01;23.67;;;9.55;;
16450;SDS011;12243;42.708;23.310;2023-10-31T08:39:28;12.75;;;9.05;;
16450;SDS011;12243;42.708;23.310;2023-10-31T08:41:57;16.92;;;9.35;;
16450;SDS011;12243;42.708;23.310;2023-10-31T08:44:24;15.50;;;8.57;;
16450;SDS011;12243;42.708;23.310;2023-10-31T08:46:52;10.30;;;7.53;;
16450;SDS011;12243;42.708;23.310;2023-10-31T08:49:18;14.18;;;8.65;;
16450;SDS011;12243;42.708;23.310;2023-10-31T08:51:45;12.15;;;8.45;;
16450;SDS011;12243;42.708;23.310;2023-10-31T08:54:12;12.70;;;8.48;;
16450;SDS011;12243;42.708;23.310;2023-10-31T08:56:39;13.18;;;8.68;;
16450;SDS011;12243;42.708;23.310;2023-10-31T08:59:07;12.18;;;8.10;;
16450;SDS011;12243;42.708;23.310;2023-10-31T09:01:34;14.82;;;7.75;;
16450;SDS011;12243;42.708;23.310;2023-10-31T09:04:01;15.68;;;7.38;;
16450;SDS011;12243;42.708;23.310;2023-10-31T09:06:28;13.85;;;8.20;;
16450;SDS011;12243;42.708;23.310;2023-10-31T09:08:55;11.52;;;7.60;;
16450;SDS011;12243;42.708;23.310;2023-10-31T09:11:22;17.42;;;8.00;;
16450;SDS011;12243;42.708;23.310;2023-10-31T09:13:49;14.88;;;8.02;;
16450;SDS011;12243;42.708;23.310;2023-10-31T09:16:17;9.57;;;7.70;;
16450;SDS011;12243;42.708;23.310;2023-10-31T09:18:44;13.05;;;6.95;;
16450;SDS011;12243;42.708;23.310;2023-10-31T09:21:12;11.60;;;7.25;;
16450;SDS011;12243;42.708;23.310;2023-10-31T09:23:39;11.05;;;6.80;;
16450;SDS011;12243;42.708;23.310;2023-10-31T09:26:06;9.48;;;6.80;;
16450;SDS011;12243;42.708;23.310;2023-10-31T09:28:33;14.90;;;7.35;;
16450;SDS011;12243;42.708;23.310;2023-10-31T09:31:00;11.70;;;7.18;;
16450;SDS011;12243;42.708;23.310;2023-10-31T09:33:28;12.73;;;7.35;;
16450;SDS011;12243;42.708;23.310;2023-10-31T09:35:55;10.15;;;6.03;;
16450;SDS011;12243;42.708;23.310;2023-10-31T09:38:22;13.27;;;7.20;;
16450;SDS011;12243;42.708;23.310;2023-10-31T09:40:49;12.63;;;7.35;;
16450;SDS011;12243;42.708;23.310;2023-10-31T09:43:16;9.95;;;7.00;;
16450;SDS011;12243;42.708;23.310;2023-10-31T09:45:46;8.90;;;7.15;;
16450;SDS011;12243;42.708;23.310;2023-10-31T09:48:14;10.05;;;6.82;;
16450;SDS011;12243;42.708;23.310;2023-10-31T09:50:44;11.63;;;6.60;;
16450;SDS011;12243;42.708;23.310;2023-10-31T09:53:12;12.88;;;6.20;;
16450;SDS011;12243;42.708;23.310;2023-10-31T09:55:41;9.50;;;6.10;;
16450;SDS011;12243;42.708;23.310;2023-10-31T09:58:09;7.88;;;5.75;;
16450;SDS011;12243;42.708;23.310;2023-10-31T10:00:36;21.60;;;6.70;;
16450;SDS011;12243;42.708;23.310;2023-10-31T10:03:06;13.10;;;6.25;;
16450;SDS011;12243;42.708;23.310;2023-10-31T10:05:33;12.02;;;6.18;;
16450;SDS011;12243;42.708;23.310;2023-10-31T10:08:04;10.35;;;5.68;;
16450;SDS011;12243;42.708;23.310;2023-10-31T10:10:31;12.38;;;6.75;;
16450;SDS011;12243;42.708;23.310;2023-10-31T10:12:59;10.65;;;6.13;;
16450;SDS011;12243;42.708;23.310;2023-10-31T10:15:28;14.63;;;6.60;;
16450;SDS011;12243;42.708;23.310;2023-10-31T10:17:55;9.65;;;6.13;;
16450;SDS011;12243;42.708;23.310;2023-10-31T10:20:22;11.02;;;6.03;;
16450;SDS011;12243;42.708;23.310;2023-10-31T10:22:49;10.30;;;5.95;;
16450;SDS011;12243;42.708;23.310;2023-10-31T10:25:18;9.98;;;5.50;;
16450;SDS011;12243;42.708;23.310;2023-10-31T10:27:45;9.85;;;4.97;;
16450;SDS011;12243;42.708;23.310;2023-10-31T10:30:13;7.90;;;4.72;;
16450;SDS011;12243;42.708;23.310;2023-10-31T10:32:40;8.68;;;5.53;;
16450;SDS011;12243;42.708;23.310;2023-10-31T10:35:07;8.93;;;5.43;;
16450;SDS011;12243;42.708;23.310;2023-10-31T10:37:35;10.55;;;6.50;;
16450;SDS011;12243;42.708;23.310;2023-10-31T10:40:05;8.40;;;5.57;;
16450;SDS011;12243;42.708;23.310;2023-10-31T10:42:37;13.00;;;6.15;;
16450;SDS011;12243;42.708;23.310;2023-10-31T10:45:10;9.23;;;5.82;;
16450;SDS011;12243;42.708;23.310;2023-10-31T10:47:40;12.60;;;5.63;;
16450;SDS011;12243;42.708;23.310;2023-10-31T10:50:13;14.50;;;6.05;;
16450;SDS011;12243;42.708;23.310;2023-10-31T10:52:41;7.82;;;4.50;;
16450;SDS011;12243;42.708;23.310;2023-10-31T10:55:13;9.70;;;4.88;;
16450;SDS011;12243;42.708;23.310;2023-10-31T10:57:47;10.40;;;5.63;;
16450;SDS011;12243;42.708;23.310;2023-10-31T11:00:20;8.70;;;4.45;;
16450;SDS011;12243;42.708;23.310;2023-10-31T11:02:50;9.85;;;5.88;;
16450;SDS011;12243;42.708;23.310;2023-10-31T11:05:18;9.40;;;5.32;;
16450;SDS011;12243;42.708;23.310;2023-10-31T11:07:46;13.70;;;5.70;;
16450;SDS011;12243;42.708;23.310;2023-10-31T11:10:13;9.75;;;5.68;;
16450;SDS011;12243;42.708;23.310;2023-10-31T11:12:41;10.45;;;4.93;;
16450;SDS011;12243;42.708;23.310;2023-10-31T11:15:11;6.07;;;4.82;;
16450;SDS011;12243;42.708;23.310;2023-10-31T11:17:40;12.38;;;5.13;;
16450;SDS011;12243;42.708;23.310;2023-10-31T11:20:09;9.70;;;4.63;;
16450;SDS011;12243;42.708;23.310;2023-10-31T11:22:39;7.97;;;3.47;;
16450;SDS011;12243;42.708;23.310;2023-10-31T11:25:08;5.60;;;3.05;;
16450;SDS011;12243;42.708;23.310;2023-10-31T11:27:36;9.25;;;4.07;;
16450;SDS011;12243;42.708;23.310;2023-10-31T11:30:04;8.15;;;4.20;;
16450;SDS011;12243;42.708;23.310;2023-10-31T11:32:34;8.02;;;3.42;;
16450;SDS011;12243;42.708;23.310;2023-10-31T11:35:01;10.70;;;3.92;;
16450;SDS011;12243;42.708;23.310;2023-10-31T11:37:31;9.38;;;3.15;;
16450;SDS011;12243;42.708;23.310;2023-10-31T11:40:16;6.28;;;3.95;;
16450;SDS011;12243;42.708;23.310;2023-10-31T11:42:47;5.82;;;3.33;;
16450;SDS011;12243;42.708;23.310;2023-10-31T11:45:28;3.75;;;3.00;;
16450;SDS011;12243;42.708;23.310;2023-10-31T11:47:59;10.43;;;2.90;;
16450;SDS011;12243;42.708;23.310;2023-10-31T11:50:26;5.43;;;4.13;;
16450;SDS011;12243;42.708;23.310;2023-10-31T11:52:59;5.07;;;2.95;;
16450;SDS011;12243;42.708;23.310;2023-10-31T11:55:27;6.38;;;3.55;;
16450;SDS011;12243;42.708;23.310;2023-10-31T11:57:55;7.45;;;4.47;;
16450;SDS011;12243;42.708;23.310;2023-10-31T12:00:22;6.70;;;4.68;;
16450;SDS011;12243;42.708;23.310;2023-10-31T12:02:56;5.10;;;4.10;;
16450;SDS011;12243;42.708;23.310;2023-10-31T12:05:25;6.78;;;3.55;;
16450;SDS011;12243;42.708;23.310;2023-10-31T12:07:53;8.05;;;4.25;;
16450;SDS011;12243;42.708;23.310;2023-10-31T12:10:23;5.80;;;3.13;;
16450;SDS011;12243;42.708;23.310;2023-10-31T12:12:52;5.55;;;3.30;;
16450;SDS011;12243;42.708;23.310;2023-10-31T12:15:19;7.60;;;3.55;;
16450;SDS011;12243;42.708;23.310;2023-10-31T12:17:46;11.75;;;3.38;;
16450;SDS011;12243;42.708;23.310;2023-10-31T12:20:14;6.97;;;3.00;;
16450;SDS011;12243;42.708;23.310;2023-10-31T12:22:42;7.72;;;3.05;;
16450;SDS011;12243;42.708;23.310;2023-10-31T12:25:10;4.25;;;3.47;;
16450;SDS011;12243;42.708;23.310;2023-10-31T12:27:44;5.75;;;3.17;;
16450;SDS011;12243;42.708;23.310;2023-10-31T12:30:12;9.63;;;3.50;;
16450;SDS011;12243;42.708;23.310;2023-10-31T12:32:40;8.18;;;3.28;;
16450;SDS011;12243;42.708;23.310;2023-10-31T12:35:08;7.93;;;3.22;;
16450;SDS011;12243;42.708;23.310;2023-10-31T12:37:42;8.65;;;3.50;;
16450;SDS011;12243;42.708;23.310;2023-10-31T12:40:11;11.85;;;3.45;;
16450;SDS011;12243;42.708;23.310;2023-10-31T12:42:41;6.80;;;3.10;;
16450;SDS011;12243;42.708;23.310;2023-10-31T12:45:09;4.47;;;2.80;;
16450;SDS011;12243;42.708;23.310;2023-10-31T12:47:37;6.43;;;3.42;;
16450;SDS011;12243;42.708;23.310;2023-10-31T12:50:07;6.72;;;3.33;;
16450;SDS011;12243;42.708;23.310;2023-10-31T12:52:47;7.50;;;3.50;;
16450;SDS011;12243;42.708;23.310;2023-10-31T12:55:16;9.00;;;3.65;;
16450;SDS011;12243;42.708;23.310;2023-10-31T12:57:45;6.55;;;3.40;;
16450;SDS011;12243;42.708;23.310;2023-10-31T13:00:13;4.95;;;3.08;;
16450;SDS011;12243;42.708;23.310;2023-10-31T13:02:42;7.10;;;3.88;;
16450;SDS011;12243;42.708;23.310;2023-10-31T13:05:10;9.60;;;3.63;;
16450;SDS011;12243;42.708;23.310;2023-10-31T13:07:38;7.57;;;3.30;;
16450;SDS011;12243;42.708;23.310;2023-10-31T13:10:08;5.40;;;3.00;;
16450;SDS011;12243;42.708;23.310;2023-10-31T13:12:36;8.77;;;3.65;;
16450;SDS011;12243;42.708;23.310;2023-10-31T13:15:03;5.65;;;3.30;;
16450;SDS011;12243;42.708;23.310;2023-10-31T13:17:31;5.63;;;3.25;;
16450;SDS011;12243;42.708;23.310;2023-10-31T13:19:59;8.32;;;3.40;;
16450;SDS011;12243;42.708;23.310;2023-10-31T13:22:26;7.13;;;3.25;;
16450;SDS011;12243;42.708;23.310;2023-10-31T13:24:52;5.38;;;3.38;;
16450;SDS011;12243;42.708;23.310;2023-10-31T13:27:21;7.50;;;3.85;;
16450;SDS011;12243;42.708;23.310;2023-10-31T13:29:47;8.27;;;3.60;;
16450;SDS011;12243;42.708;23.310;2023-10-31T13:32:15;6.78;;;3.20;;
16450;SDS011;12243;42.708;23.310;2023-10-31T13:34:45;10.60;;;3.35;;
16450;SDS011;12243;42.708;23.310;2023-10-31T13:37:13;8.48;;;3.15;;
16450;SDS011;12243;42.708;23.310;2023-10-31T13:39:40;5.60;;;2.90;;
16450;SDS011;12243;42.708;23.310;2023-10-31T13:42:07;7.70;;;3.25;;
16450;SDS011;12243;42.708;23.310;2023-10-31T13:44:37;8.68;;;3.47;;
16450;SDS011;12243;42.708;23.310;2023-10-31T13:47:04;7.95;;;3.50;;
16450;SDS011;12243;42.708;23.310;2023-10-31T13:49:31;10.38;;;3.53;;
16450;SDS011;12243;42.708;23.310;2023-10-31T13:51:58;13.85;;;4.30;;
16450;SDS011;12243;42.708;23.310;2023-10-31T13:54:25;8.93;;;3.17;;
16450;SDS011;12243;42.708;23.310;2023-10-31T13:56:52;8.85;;;3.40;;
16450;SDS011;12243;42.708;23.310;2023-10-31T13:59:19;8.43;;;3.60;;
16450;SDS011;12243;42.708;23.310;2023-10-31T14:01:47;7.30;;;3.20;;
16450;SDS011;12243;42.708;23.310;2023-10-31T14:04:14;9.48;;;3.22;;
16450;SDS011;12243;42.708;23.310;2023-10-31T14:06:42;4.65;;;3.08;;
16450;SDS011;12243;42.708;23.310;2023-10-31T14:09:09;4.88;;;3.47;;
16450;SDS011;12243;42.708;23.310;2023-10-31T14:11:37;4.05;;;2.85;;
16450;SDS011;12243;42.708;23.310;2023-10-31T14:14:05;9.63;;;3.85;;
16450;SDS011;12243;42.708;23.310;2023-10-31T14:16:34;9.00;;;3.70;;
16450;SDS011;12243;42.708;23.310;2023-10-31T14:19:02;8.10;;;3.15;;
16450;SDS011;12243;42.708;23.310;2023-10-31T14:21:29;10.85;;;3.97;;
16450;SDS011;12243;42.708;23.310;2023-10-31T14:23:56;6.65;;;3.92;;
16450;SDS011;12243;42.708;23.310;2023-10-31T14:26:23;8.55;;;4.22;;